• Join FlightAware (Why Join?)
  • Login
  • US Flag 
07:26PM EDT


 

Airport Tracker/Info


-or-


 

Live Flight TrackerFlight Track Log ✈ EGF4285 ✈ 05-Jun-2013 ✈ KBWI - KORD

Flight Track Log - Related Links

Times and Time Zones

All times are in EDT time to prevent confusion due to time zone crossing. See the EGF4285 flight status page for this flight to view local times or setup timezone preferences in your user account.

Time Position Orientation Groundspeed Altitude Reporting Facility
EDT Latitude Longitude Course Direction KTS MPH feet Rate Location/Type
06:14AM 39.1667 -76.7167 211° Southwest 173 199 1,500  Level Potomac TRACON
06:15AM 39.1864 -76.8233 283° West 217 250 4,800 2,220 Climbing Washington Center
06:16AM 39.2000 -77.0199 270° West  Level FlightAware Approximate
06:16AM 39.2042 -76.9147 284° West 237 273 7,300  Level Washington Center
06:17AM 39.2000 -77.1413 270° West  Level FlightAware Approximate
06:17AM 39.2114 -77.0058 276° West 250 288 9,600  Level Washington Center
06:18AM 39.1267 -77.2108 211° Southwest  Level FlightAware Approximate
06:18AM 39.2100 -77.1183 269° West 279 321 11,600  Level Washington Center
06:19AM 39.0461 -77.2734 211° Southwest  Level FlightAware Approximate
06:19AM 39.1717 -77.1900 235° Southwest 310 357 12,500  Level Washington Center
06:20AM 39.1281 -77.3228 247° West 325 374 14,400 1,680 Climbing Washington Center
06:21AM 39.1075 -77.4453 258° West 338 389 16,000 1,380 Climbing Washington Center
06:22AM 39.0847 -77.5678 257° West 353 406 17,300 1,260 Climbing Washington Center
06:23AM 39.0619 -77.6900 257° West 358 412 18,500 1,020 Climbing Washington Center
06:24AM 39.0389 -77.8125 256° West 352 405 19,400 900 Climbing Washington Center
06:25AM 39.0136 -77.9400 256° West 358 412 20,400 960 Climbing Washington Center
06:26AM 38.9900 -78.0728 257° West 375 432 21,400 960 Climbing Washington Center
06:27AM 38.9622 -78.2053 255° West 380 437 22,400 960 Climbing Washington Center
06:28AM 38.9633 -78.3442 271° West 385 443 23,400 1,080 Climbing Washington Center
06:29AM 38.9683 -78.4858 273° West 390 449 24,600 1,320 Climbing Washington Center
06:30AM 38.9733 -78.6194 273° West 390 449 26,100 1,500 Climbing Washington Center
06:31AM 38.9781 -78.7531 273° West 382 440 27,600 1,440 Climbing Washington Center
06:32AM 38.9808 -78.8842 272° West 375 432 29,000 1,440 Climbing Washington Center
06:33AM 38.9858 -79.0072 273° West 365 420 30,500 1,440 Climbing Washington Center
06:34AM 38.9886 -79.1303 272° West 359 413 32,000 1,500 Climbing Washington Center
06:35AM 38.9911 -79.2506 272° West 353 406 33,500 1,440 Climbing Washington Center
06:36AM 38.9958 -79.3683 273° West 342 394 34,900 1,200 Climbing Washington Center
06:37AM 39.0047 -79.4836 276° West 336 387 36,000 540 Climbing Washington Center
06:38AM 39.0172 -79.6100 277° West 339 390 36,000  Level Washington Center
06:39AM 39.0272 -79.7414 276° West 361 415 36,000  Level Washington Center
06:40AM 39.0378 -79.8597 277° West 372 428 36,000  Level Washington Center
06:42AM 39.0586 -80.1586 275° West 382 440 36,000  Level Indianapolis Center
06:43AM 39.0689 -80.2939 276° West 381 438 36,000  Level Indianapolis Center
06:44AM 39.0806 -80.4269 276° West 375 432 36,000  Level Indianapolis Center
06:46AM 39.0942 -80.5614 277° West 381 438 36,000  Level Indianapolis Center
06:47AM 39.1478 -80.6819 300° West 391 450 36,000  Level Indianapolis Center
06:48AM 39.2017 -80.8036 300° West 392 451 36,000  Level Indianapolis Center
06:49AM 39.2544 -80.9250 299° West 389 448 36,000  Level Indianapolis Center
06:50AM 39.3067 -81.0469 299° West 389 448 36,000  Level Indianapolis Center
06:51AM 39.3600 -81.1661 300° West 386 444 36,000  Level Indianapolis Center
06:52AM 39.4108 -81.2869 299° West 384 442 36,000  Level Indianapolis Center
06:53AM 39.4628 -81.4072 299° West 384 442 36,000  Level Indianapolis Center
06:54AM 39.5247 -81.5547 299° West 389 448 36,000  Level Indianapolis Center
06:55AM 39.5775 -81.6764 299° West 389 448 36,000  Level Indianapolis Center
06:56AM 39.6292 -81.8017 298° West 394 453 36,000  Level Indianapolis Center
06:57AM 39.6822 -81.9261 299° West 395 455 36,000  Level Indianapolis Center
06:58AM 39.7356 -82.0544 298° West 397 457 36,000  Level Indianapolis Center
06:59AM 39.7883 -82.1797 299° West 393 452 36,000  Level Indianapolis Center
07:00AM 39.8406 -82.3072 298° West 397 457 36,000  Level Indianapolis Center
07:01AM 39.8931 -82.4317 299° West 393 452 36,000  Level Indianapolis Center
07:02AM 39.9444 -82.5586 298° West 393 452 36,000  Level Indianapolis Center
07:03AM 39.9972 -82.6867 298° West 397 457 36,000  Level Indianapolis Center
07:04AM 40.0489 -82.8128 298° West 395 455 36,000  Level Indianapolis Center
07:05AM 40.1003 -82.9394 298° West 393 452 36,000  Level Indianapolis Center
07:06AM 40.1511 -83.0669 298° West 394 453 36,000  Level Indianapolis Center
07:07AM 40.2028 -83.1928 298° West 392 451 36,000  Level Indianapolis Center
07:08AM 40.2547 -83.3217 298° West 398 458 36,000  Level Indianapolis Center
07:09AM 40.3064 -83.4500 298° West 398 458 36,000  Level Indianapolis Center
07:10AM 40.3583 -83.5806 298° West 403 464 36,000  Level Indianapolis Center
07:11AM 40.4189 -83.7328 298° West 402 463 36,000  Level Indianapolis Center
07:12AM 40.4714 -83.8650 298° West 405 466 36,000  Level Indianapolis Center
07:13AM 40.5222 -83.9964 297° West 402 463 36,000  Level Indianapolis Center
07:14AM 40.5736 -84.1256 298° West 398 458 36,000 -300 Level Indianapolis Center
07:15AM 40.6231 -84.2569 296° West 397 457 35,500 -960 Descending Indianapolis Center
07:16AM 40.6758 -84.3892 298° West 403 464 34,100 -780 Descending Indianapolis Center
07:17AM 40.7258 -84.5200 297° West 398 458 34,000 -60 Descending Indianapolis Center
07:18AM 40.7767 -84.6553 296° West 406 467 34,000  Level Indianapolis Center
07:18AM 40.7972 -84.7097 297° West 407 468 34,000  Level Chicago Center
07:19AM 40.8467 -84.8428 296° West 405 466 34,000 -120 Level Chicago Center
07:21AM 40.8956 -84.9753 296° West 403 464 33,800 -900 Descending Chicago Center
07:22AM 40.9456 -85.1064 297° West 400 460 32,200 -1,560 Descending Chicago Center
07:23AM 40.9944 -85.2397 296° West 401 461 30,700 -1,560 Descending Chicago Center
07:24AM 41.0456 -85.3786 296° West 409 471 29,100 -1,620 Descending Chicago Center
07:25AM 41.0958 -85.5158 296° West 416 479 27,500 -1,740 Descending Chicago Center
07:26AM 41.1583 -85.6889 296° West 428 493 25,600 -1,260 Descending Chicago Center
07:27AM 41.2108 -85.8314 296° West 427 491 25,000 -300 Descending Chicago Center
07:28AM 41.2614 -85.9750 295° West 426 490 25,000  Level Chicago Center
07:29AM 41.3061 -86.1200 292° West 425 489 25,000  Level Chicago Center
07:30AM 41.3417 -86.2694 288° West 422 486 25,000  Level Chicago Center
07:31AM 41.3792 -86.4192 289° West 425 489 25,000 -840 Level Chicago Center
07:32AM 41.4169 -86.5683 289° West 424 488 23,400 -2,400 Descending Chicago Center
07:33AM 41.4575 -86.7300 289° West 408 470 20,200 -2,880 Descending Chicago Center
07:34AM 41.4897 -86.8650 288° West 388 447 17,600 -2,580 Descending Chicago Center
07:35AM 41.5219 -86.9969 288° West 378 435 15,000 -2,340 Descending Chicago Center
07:36AM 41.5528 -87.1286 287° West 375 432 12,900 -1,560 Descending Chicago Center
07:37AM 41.5850 -87.2525 289° West 358 412 11,900 -780 Descending Chicago Center
07:38AM 41.6478 -87.3531 310° West 354 407 11,400 -960 Descending Chicago Center
07:39AM 41.7064 -87.4492 309° West 341 392 10,000 -1,200 Descending Chicago Center
07:40AM 41.7661 -87.5489 309° West 278 320 9,000 -1,020 Descending Chicago Center
07:41AM 41.8131 -87.6250 310° West 266 306 7,900 -540 Descending Chicago Center
07:42AM 41.8547 -87.7058 305° West 269 310 8,000  Climbing Chicago Center
07:43AM 41.8764 -87.8014 287° West 271 312 8,000  Level Chicago Center
07:44AM 41.8833 -87.9000 275° West 271 312 8,100  Climbing Chicago TRACON
07:45AM 41.8833 -87.9833 270° West 256 295 8,100 -660 Level Chicago TRACON
07:46AM 41.8833 -88.0667 270° West 227 261 6,900 -1,380 Descending Chicago TRACON
07:47AM 41.9167 -88.1333 304° West 246 283 5,200 -1,560 Descending Chicago TRACON